sensor_id;sensor_type;location;lat;lon;timestamp;temperature;humidity
19090;DHT22;9677;50.656;13.064;2022-09-16T00:01:11;17.10;57.00
19090;DHT22;9677;50.656;13.064;2022-09-16T00:03:40;17.10;57.00
19090;DHT22;9677;50.656;13.064;2022-09-16T00:06:18;17.10;57.00
19090;DHT22;9677;50.656;13.064;2022-09-16T00:08:47;17.10;56.90
19090;DHT22;9677;50.656;13.064;2022-09-16T00:11:16;17.10;57.00
19090;DHT22;9677;50.656;13.064;2022-09-16T00:13:45;17.10;57.00
19090;DHT22;9677;50.656;13.064;2022-09-16T00:16:17;17.20;57.10
19090;DHT22;9677;50.656;13.064;2022-09-16T00:18:47;17.10;57.10
19090;DHT22;9677;50.656;13.064;2022-09-16T00:21:17;17.10;57.10
19090;DHT22;9677;50.656;13.064;2022-09-16T00:23:45;17.10;57.00
19090;DHT22;9677;50.656;13.064;2022-09-16T00:26:13;17.10;57.00
19090;DHT22;9677;50.656;13.064;2022-09-16T00:28:42;17.10;57.10
19090;DHT22;9677;50.656;13.064;2022-09-16T00:31:13;17.10;57.10
19090;DHT22;9677;50.656;13.064;2022-09-16T00:33:41;17.10;57.10
19090;DHT22;9677;50.656;13.064;2022-09-16T00:36:12;17.00;57.10
19090;DHT22;9677;50.656;13.064;2022-09-16T00:38:43;17.10;57.10
19090;DHT22;9677;50.656;13.064;2022-09-16T00:41:15;17.10;57.10
19090;DHT22;9677;50.656;13.064;2022-09-16T00:44:03;17.10;57.00
19090;DHT22;9677;50.656;13.064;2022-09-16T00:46:36;17.10;56.90
19090;DHT22;9677;50.656;13.064;2022-09-16T00:49:13;17.10;57.00
19090;DHT22;9677;50.656;13.064;2022-09-16T00:51:45;17.10;57.00
19090;DHT22;9677;50.656;13.064;2022-09-16T00:54:18;17.00;57.00
19090;DHT22;9677;50.656;13.064;2022-09-16T00:56:50;17.00;57.00
19090;DHT22;9677;50.656;13.064;2022-09-16T00:59:22;17.00;57.00
19090;DHT22;9677;50.656;13.064;2022-09-16T01:01:53;17.00;57.00
19090;DHT22;9677;50.656;13.064;2022-09-16T01:04:26;17.00;57.10
19090;DHT22;9677;50.656;13.064;2022-09-16T01:06:56;16.90;57.00
19090;DHT22;9677;50.656;13.064;2022-09-16T01:09:27;17.00;57.10
19090;DHT22;9677;50.656;13.064;2022-09-16T01:11:56;17.00;57.10
19090;DHT22;9677;50.656;13.064;2022-09-16T01:14:25;17.00;57.10
19090;DHT22;9677;50.656;13.064;2022-09-16T01:17:16;16.90;57.10
19090;DHT22;9677;50.656;13.064;2022-09-16T01:20:16;17.00;57.30
19090;DHT22;9677;50.656;13.064;2022-09-16T01:23:08;16.90;57.20
19090;DHT22;9677;50.656;13.064;2022-09-16T01:26:07;17.00;57.30
19090;DHT22;9677;50.656;13.064;2022-09-16T01:29:06;16.90;57.20
19090;DHT22;9677;50.656;13.064;2022-09-16T01:31:49;17.00;57.10
19090;DHT22;9677;50.656;13.064;2022-09-16T01:34:24;17.00;57.20
19090;DHT22;9677;50.656;13.064;2022-09-16T01:37:05;17.00;57.10
19090;DHT22;9677;50.656;13.064;2022-09-16T01:39:43;16.90;57.10
19090;DHT22;9677;50.656;13.064;2022-09-16T01:42:21;16.90;57.10
19090;DHT22;9677;50.656;13.064;2022-09-16T01:44:58;17.00;57.20
19090;DHT22;9677;50.656;13.064;2022-09-16T01:47:35;16.90;57.20
19090;DHT22;9677;50.656;13.064;2022-09-16T01:50:12;16.90;57.10
19090;DHT22;9677;50.656;13.064;2022-09-16T01:52:48;16.90;57.20
19090;DHT22;9677;50.656;13.064;2022-09-16T01:55:37;16.90;57.20
19090;DHT22;9677;50.656;13.064;2022-09-16T01:58:13;16.90;57.20
19090;DHT22;9677;50.656;13.064;2022-09-16T02:00:47;16.90;57.30
19090;DHT22;9677;50.656;13.064;2022-09-16T02:03:21;16.90;57.30
19090;DHT22;9677;50.656;13.064;2022-09-16T02:05:54;16.90;57.40
19090;DHT22;9677;50.656;13.064;2022-09-16T02:08:28;16.80;57.30
19090;DHT22;9677;50.656;13.064;2022-09-16T02:11:01;16.90;57.40
19090;DHT22;9677;50.656;13.064;2022-09-16T02:13:34;16.90;57.40
19090;DHT22;9677;50.656;13.064;2022-09-16T02:16:08;16.90;57.50
19090;DHT22;9677;50.656;13.064;2022-09-16T02:18:42;16.90;57.50
19090;DHT22;9677;50.656;13.064;2022-09-16T02:21:18;16.90;57.50
19090;DHT22;9677;50.656;13.064;2022-09-16T02:23:50;16.90;57.50
19090;DHT22;9677;50.656;13.064;2022-09-16T02:26:23;16.90;57.50
19090;DHT22;9677;50.656;13.064;2022-09-16T02:28:55;16.90;57.50
19090;DHT22;9677;50.656;13.064;2022-09-16T02:31:25;16.90;57.40
19090;DHT22;9677;50.656;13.064;2022-09-16T02:34:02;17.00;57.40
19090;DHT22;9677;50.656;13.064;2022-09-16T02:36:33;16.90;57.30
19090;DHT22;9677;50.656;13.064;2022-09-16T02:39:06;16.90;57.20
19090;DHT22;9677;50.656;13.064;2022-09-16T02:41:37;16.90;57.30
19090;DHT22;9677;50.656;13.064;2022-09-16T02:44:06;16.90;57.30
19090;DHT22;9677;50.656;13.064;2022-09-16T02:46:39;16.80;57.30
19090;DHT22;9677;50.656;13.064;2022-09-16T02:49:16;16.80;57.30
19090;DHT22;9677;50.656;13.064;2022-09-16T02:51:56;16.90;57.30
19090;DHT22;9677;50.656;13.064;2022-09-16T02:54:32;16.80;57.20
19090;DHT22;9677;50.656;13.064;2022-09-16T02:57:03;16.80;57.20
19090;DHT22;9677;50.656;13.064;2022-09-16T02:59:32;16.80;57.20
19090;DHT22;9677;50.656;13.064;2022-09-16T03:02:00;16.80;57.20
19090;DHT22;9677;50.656;13.064;2022-09-16T03:04:30;16.80;57.20
19090;DHT22;9677;50.656;13.064;2022-09-16T03:06:59;16.80;57.10
19090;DHT22;9677;50.656;13.064;2022-09-16T03:09:27;16.70;57.10
19090;DHT22;9677;50.656;13.064;2022-09-16T03:12:37;16.70;57.10
19090;DHT22;9677;50.656;13.064;2022-09-16T03:15:35;16.60;57.50
19090;DHT22;9677;50.656;13.064;2022-09-16T03:18:27;16.60;57.10
19090;DHT22;9677;50.656;13.064;2022-09-16T03:21:12;16.60;57.10
19090;DHT22;9677;50.656;13.064;2022-09-16T03:23:54;16.60;57.20
19090;DHT22;9677;50.656;13.064;2022-09-16T03:26:35;16.50;57.30
19090;DHT22;9677;50.656;13.064;2022-09-16T03:29:16;16.60;57.20
19090;DHT22;9677;50.656;13.064;2022-09-16T03:31:50;16.50;57.20
19090;DHT22;9677;50.656;13.064;2022-09-16T03:34:25;16.50;57.10
19090;DHT22;9677;50.656;13.064;2022-09-16T03:37:01;16.70;57.30
19090;DHT22;9677;50.656;13.064;2022-09-16T03:39:32;16.40;57.20
19090;DHT22;9677;50.656;13.064;2022-09-16T03:42:01;16.40;57.20
19090;DHT22;9677;50.656;13.064;2022-09-16T03:44:31;16.40;57.30
19090;DHT22;9677;50.656;13.064;2022-09-16T03:47:00;16.40;57.40
19090;DHT22;9677;50.656;13.064;2022-09-16T03:49:29;16.40;57.30
19090;DHT22;9677;50.656;13.064;2022-09-16T03:51:59;16.40;57.40
19090;DHT22;9677;50.656;13.064;2022-09-16T03:54:27;16.40;57.30
19090;DHT22;9677;50.656;13.064;2022-09-16T03:56:55;16.40;57.30
19090;DHT22;9677;50.656;13.064;2022-09-16T03:59:24;16.40;57.30
19090;DHT22;9677;50.656;13.064;2022-09-16T04:01:52;16.40;57.40
19090;DHT22;9677;50.656;13.064;2022-09-16T04:04:22;16.40;57.40
19090;DHT22;9677;50.656;13.064;2022-09-16T04:06:50;16.40;57.40
19090;DHT22;9677;50.656;13.064;2022-09-16T04:09:20;16.30;57.30
19090;DHT22;9677;50.656;13.064;2022-09-16T04:11:48;16.60;57.40
19090;DHT22;9677;50.656;13.064;2022-09-16T04:14:16;16.40;57.40
19090;DHT22;9677;50.656;13.064;2022-09-16T04:16:46;16.30;57.40
19090;DHT22;9677;50.656;13.064;2022-09-16T04:19:14;16.30;57.40
19090;DHT22;9677;50.656;13.064;2022-09-16T04:21:42;16.30;57.40
19090;DHT22;9677;50.656;13.064;2022-09-16T04:24:11;16.30;57.40
19090;DHT22;9677;50.656;13.064;2022-09-16T04:26:41;16.20;57.40
19090;DHT22;9677;50.656;13.064;2022-09-16T04:29:10;16.20;57.40
19090;DHT22;9677;50.656;13.064;2022-09-16T04:31:38;16.20;57.50
19090;DHT22;9677;50.656;13.064;2022-09-16T04:34:09;16.00;57.40
19090;DHT22;9677;50.656;13.064;2022-09-16T04:36:38;16.30;57.60
19090;DHT22;9677;50.656;13.064;2022-09-16T04:39:07;16.20;57.60
19090;DHT22;9677;50.656;13.064;2022-09-16T04:41:35;16.30;57.50
19090;DHT22;9677;50.656;13.064;2022-09-16T04:44:04;16.40;57.60
19090;DHT22;9677;50.656;13.064;2022-09-16T04:46:33;16.30;57.60
19090;DHT22;9677;50.656;13.064;2022-09-16T04:49:02;16.30;57.60
19090;DHT22;9677;50.656;13.064;2022-09-16T04:51:30;16.30;57.60
19090;DHT22;9677;50.656;13.064;2022-09-16T04:53:59;16.30;57.60
19090;DHT22;9677;50.656;13.064;2022-09-16T04:56:29;16.20;57.60
19090;DHT22;9677;50.656;13.064;2022-09-16T04:59:00;16.20;57.60
19090;DHT22;9677;50.656;13.064;2022-09-16T05:01:32;16.20;57.60
19090;DHT22;9677;50.656;13.064;2022-09-16T05:04:04;16.20;57.60
19090;DHT22;9677;50.656;13.064;2022-09-16T05:06:35;16.20;57.60
19090;DHT22;9677;50.656;13.064;2022-09-16T05:09:04;16.20;57.60
19090;DHT22;9677;50.656;13.064;2022-09-16T05:11:35;16.20;57.60
19090;DHT22;9677;50.656;13.064;2022-09-16T05:14:07;16.20;57.70
19090;DHT22;9677;50.656;13.064;2022-09-16T05:16:39;16.10;57.70
19090;DHT22;9677;50.656;13.064;2022-09-16T05:19:09;16.10;57.70
19090;DHT22;9677;50.656;13.064;2022-09-16T05:21:38;16.10;57.70
19090;DHT22;9677;50.656;13.064;2022-09-16T05:24:08;16.10;57.70
19090;DHT22;9677;50.656;13.064;2022-09-16T05:26:39;16.10;57.70
19090;DHT22;9677;50.656;13.064;2022-09-16T05:29:11;16.10;57.70
19090;DHT22;9677;50.656;13.064;2022-09-16T05:31:43;16.10;57.70
19090;DHT22;9677;50.656;13.064;2022-09-16T05:34:14;16.10;57.70
19090;DHT22;9677;50.656;13.064;2022-09-16T05:36:45;16.10;57.80
19090;DHT22;9677;50.656;13.064;2022-09-16T05:39:15;16.20;57.80
19090;DHT22;9677;50.656;13.064;2022-09-16T05:41:52;16.20;57.80
19090;DHT22;9677;50.656;13.064;2022-09-16T05:44:22;16.20;57.70
19090;DHT22;9677;50.656;13.064;2022-09-16T05:50:15;16.20;57.60
19090;DHT22;9677;50.656;13.064;2022-09-16T05:52:44;16.20;57.60
19090;DHT22;9677;50.656;13.064;2022-09-16T05:55:12;16.20;57.50
19090;DHT22;9677;50.656;13.064;2022-09-16T05:57:40;16.20;57.60
19090;DHT22;9677;50.656;13.064;2022-09-16T06:00:10;16.20;57.60
19090;DHT22;9677;50.656;13.064;2022-09-16T06:02:40;16.20;57.70
19090;DHT22;9677;50.656;13.064;2022-09-16T06:05:10;16.20;57.60
19090;DHT22;9677;50.656;13.064;2022-09-16T06:07:38;16.20;57.90
19090;DHT22;9677;50.656;13.064;2022-09-16T06:10:07;16.20;57.60
19090;DHT22;9677;50.656;13.064;2022-09-16T06:12:35;16.20;57.60
19090;DHT22;9677;50.656;13.064;2022-09-16T06:15:05;16.20;57.60
19090;DHT22;9677;50.656;13.064;2022-09-16T06:17:33;16.20;57.70
19090;DHT22;9677;50.656;13.064;2022-09-16T06:20:02;16.20;57.60
19090;DHT22;9677;50.656;13.064;2022-09-16T06:22:33;16.20;57.60
19090;DHT22;9677;50.656;13.064;2022-09-16T06:25:01;16.20;57.60
19090;DHT22;9677;50.656;13.064;2022-09-16T06:27:30;16.20;57.60
19090;DHT22;9677;50.656;13.064;2022-09-16T06:29:58;16.20;57.60
19090;DHT22;9677;50.656;13.064;2022-09-16T06:32:29;16.20;57.70
19090;DHT22;9677;50.656;13.064;2022-09-16T06:34:58;16.30;57.70
19090;DHT22;9677;50.656;13.064;2022-09-16T06:37:26;16.20;57.70
19090;DHT22;9677;50.656;13.064;2022-09-16T06:39:56;16.20;57.60
19090;DHT22;9677;50.656;13.064;2022-09-16T06:42:24;16.40;57.70
19090;DHT22;9677;50.656;13.064;2022-09-16T06:44:58;16.40;57.70
19090;DHT22;9677;50.656;13.064;2022-09-16T06:47:26;16.30;57.60
19090;DHT22;9677;50.656;13.064;2022-09-16T06:49:55;16.30;57.60
19090;DHT22;9677;50.656;13.064;2022-09-16T06:52:24;16.30;57.60
19090;DHT22;9677;50.656;13.064;2022-09-16T06:54:53;16.30;57.50
19090;DHT22;9677;50.656;13.064;2022-09-16T06:57:22;16.30;57.40
19090;DHT22;9677;50.656;13.064;2022-09-16T06:59:51;16.30;57.40
19090;DHT22;9677;50.656;13.064;2022-09-16T07:02:19;16.30;57.40
19090;DHT22;9677;50.656;13.064;2022-09-16T07:04:48;16.30;57.40
19090;DHT22;9677;50.656;13.064;2022-09-16T07:07:16;16.30;57.40
19090;DHT22;9677;50.656;13.064;2022-09-16T07:09:45;16.40;57.50
19090;DHT22;9677;50.656;13.064;2022-09-16T07:12:13;16.40;57.60
19090;DHT22;9677;50.656;13.064;2022-09-16T07:14:47;16.40;57.60
19090;DHT22;9677;50.656;13.064;2022-09-16T07:17:15;16.50;57.60
19090;DHT22;9677;50.656;13.064;2022-09-16T07:19:43;16.50;57.50
19090;DHT22;9677;50.656;13.064;2022-09-16T07:22:12;16.50;57.50
19090;DHT22;9677;50.656;13.064;2022-09-16T07:24:40;16.50;57.40
19090;DHT22;9677;50.656;13.064;2022-09-16T07:27:08;16.50;57.40
19090;DHT22;9677;50.656;13.064;2022-09-16T07:29:37;16.50;57.30
19090;DHT22;9677;50.656;13.064;2022-09-16T07:32:06;16.50;57.40
19090;DHT22;9677;50.656;13.064;2022-09-16T07:34:35;16.50;57.40
19090;DHT22;9677;50.656;13.064;2022-09-16T07:37:03;16.50;57.40
19090;DHT22;9677;50.656;13.064;2022-09-16T07:39:32;16.60;57.40
19090;DHT22;9677;50.656;13.064;2022-09-16T07:42:00;16.50;57.30
19090;DHT22;9677;50.656;13.064;2022-09-16T07:44:32;16.60;57.40
19090;DHT22;9677;50.656;13.064;2022-09-16T07:47:01;16.60;57.40
19090;DHT22;9677;50.656;13.064;2022-09-16T07:49:31;16.60;57.50
19090;DHT22;9677;50.656;13.064;2022-09-16T07:51:59;16.60;57.40
19090;DHT22;9677;50.656;13.064;2022-09-16T07:54:28;16.60;57.50
19090;DHT22;9677;50.656;13.064;2022-09-16T07:56:57;16.90;57.70
19090;DHT22;9677;50.656;13.064;2022-09-16T07:59:26;16.60;57.60
19090;DHT22;9677;50.656;13.064;2022-09-16T08:01:54;16.60;57.70
19090;DHT22;9677;50.656;13.064;2022-09-16T08:04:23;16.60;57.60
19090;DHT22;9677;50.656;13.064;2022-09-16T08:06:53;16.80;57.70
19090;DHT22;9677;50.656;13.064;2022-09-16T08:09:21;16.70;57.70
19090;DHT22;9677;50.656;13.064;2022-09-16T08:12:09;16.70;57.70
19090;DHT22;9677;50.656;13.064;2022-09-16T08:14:38;16.70;57.80
19090;DHT22;9677;50.656;13.064;2022-09-16T08:17:06;16.70;57.90
19090;DHT22;9677;50.656;13.064;2022-09-16T08:19:35;16.70;58.00
19090;DHT22;9677;50.656;13.064;2022-09-16T08:22:06;16.80;58.00
19090;DHT22;9677;50.656;13.064;2022-09-16T08:24:34;16.90;58.10
19090;DHT22;9677;50.656;13.064;2022-09-16T08:27:03;16.80;58.10
19090;DHT22;9677;50.656;13.064;2022-09-16T08:29:31;16.90;58.10
19090;DHT22;9677;50.656;13.064;2022-09-16T08:32:00;16.90;58.60
19090;DHT22;9677;50.656;13.064;2022-09-16T08:34:28;16.90;57.80
19090;DHT22;9677;50.656;13.064;2022-09-16T08:36:57;17.00;57.80
19090;DHT22;9677;50.656;13.064;2022-09-16T08:39:26;17.00;57.70
19090;DHT22;9677;50.656;13.064;2022-09-16T08:42:28;17.00;57.30
19090;DHT22;9677;50.656;13.064;2022-09-16T08:45:17;17.00;56.90
19090;DHT22;9677;50.656;13.064;2022-09-16T08:48:00;17.00;57.10
19090;DHT22;9677;50.656;13.064;2022-09-16T08:50:39;17.00;57.20
19090;DHT22;9677;50.656;13.064;2022-09-16T08:53:18;17.00;57.30
19090;DHT22;9677;50.656;13.064;2022-09-16T08:55:51;17.00;57.20
19090;DHT22;9677;50.656;13.064;2022-09-16T08:58:22;17.00;57.00
19090;DHT22;9677;50.656;13.064;2022-09-16T09:00:55;17.00;57.10
19090;DHT22;9677;50.656;13.064;2022-09-16T09:03:34;17.00;57.10
19090;DHT22;9677;50.656;13.064;2022-09-16T09:06:10;17.60;57.50
19090;DHT22;9677;50.656;13.064;2022-09-16T09:08:47;17.10;57.20
19090;DHT22;9677;50.656;13.064;2022-09-16T09:11:28;17.10;57.10
19090;DHT22;9677;50.656;13.064;2022-09-16T09:14:26;17.10;57.10
19090;DHT22;9677;50.656;13.064;2022-09-16T09:17:06;17.10;57.00
19090;DHT22;9677;50.656;13.064;2022-09-16T09:19:48;17.20;57.10
19090;DHT22;9677;50.656;13.064;2022-09-16T09:22:31;17.20;56.90
19090;DHT22;9677;50.656;13.064;2022-09-16T09:25:21;17.20;56.80
19090;DHT22;9677;50.656;13.064;2022-09-16T09:28:07;17.20;56.90
19090;DHT22;9677;50.656;13.064;2022-09-16T09:30:54;17.30;57.10
19090;DHT22;9677;50.656;13.064;2022-09-16T09:33:37;17.30;57.30
19090;DHT22;9677;50.656;13.064;2022-09-16T09:36:24;17.60;57.20
19090;DHT22;9677;50.656;13.064;2022-09-16T09:39:18;17.50;56.60
19090;DHT22;9677;50.656;13.064;2022-09-16T09:41:57;17.60;56.60
19090;DHT22;9677;50.656;13.064;2022-09-16T09:44:40;17.60;56.50
19090;DHT22;9677;50.656;13.064;2022-09-16T09:47:18;17.70;56.60
19090;DHT22;9677;50.656;13.064;2022-09-16T09:49:54;17.80;56.60
19090;DHT22;9677;50.656;13.064;2022-09-16T09:52:29;17.80;56.10
19090;DHT22;9677;50.656;13.064;2022-09-16T09:55:14;17.90;56.10
19090;DHT22;9677;50.656;13.064;2022-09-16T09:57:58;18.00;56.00
19090;DHT22;9677;50.656;13.064;2022-09-16T10:00:33;18.00;56.00
19090;DHT22;9677;50.656;13.064;2022-09-16T10:03:08;18.00;56.60
19090;DHT22;9677;50.656;13.064;2022-09-16T10:05:39;18.00;56.10
19090;DHT22;9677;50.656;13.064;2022-09-16T10:08:14;18.20;56.40
19090;DHT22;9677;50.656;13.064;2022-09-16T10:10:48;18.10;56.50
19090;DHT22;9677;50.656;13.064;2022-09-16T10:13:19;18.10;56.60
19090;DHT22;9677;50.656;13.064;2022-09-16T10:15:53;18.10;56.60
19090;DHT22;9677;50.656;13.064;2022-09-16T10:18:25;18.20;56.60
19090;DHT22;9677;50.656;13.064;2022-09-16T10:21:00;18.20;56.60
19090;DHT22;9677;50.656;13.064;2022-09-16T10:23:31;18.30;56.60
19090;DHT22;9677;50.656;13.064;2022-09-16T10:26:18;18.40;56.50
19090;DHT22;9677;50.656;13.064;2022-09-16T10:28:58;18.40;56.20
19090;DHT22;9677;50.656;13.064;2022-09-16T10:31:35;18.40;55.70
19090;DHT22;9677;50.656;13.064;2022-09-16T10:36:59;18.50;55.80
19090;DHT22;9677;50.656;13.064;2022-09-16T10:39:29;18.50;55.90
19090;DHT22;9677;50.656;13.064;2022-09-16T10:41:59;18.60;56.40
19090;DHT22;9677;50.656;13.064;2022-09-16T10:44:31;18.60;56.60
19090;DHT22;9677;50.656;13.064;2022-09-16T10:47:04;18.70;56.90
19090;DHT22;9677;50.656;13.064;2022-09-16T10:49:38;18.90;56.90
19090;DHT22;9677;50.656;13.064;2022-09-16T10:52:14;19.10;56.80
19090;DHT22;9677;50.656;13.064;2022-09-16T10:54:44;19.20;56.20
19090;DHT22;9677;50.656;13.064;2022-09-16T10:57:22;19.40;56.20
19090;DHT22;9677;50.656;13.064;2022-09-16T10:59:56;19.50;55.70
19090;DHT22;9677;50.656;13.064;2022-09-16T11:02:50;19.80;56.20
19090;DHT22;9677;50.656;13.064;2022-09-16T11:05:53;19.70;55.30
19090;DHT22;9677;50.656;13.064;2022-09-16T11:08:36;19.80;55.30
19090;DHT22;9677;50.656;13.064;2022-09-16T11:11:19;19.90;55.00
19090;DHT22;9677;50.656;13.064;2022-09-16T11:14:01;20.00;54.70
19090;DHT22;9677;50.656;13.064;2022-09-16T11:16:59;20.00;54.60
19090;DHT22;9677;50.656;13.064;2022-09-16T11:19:51;20.20;54.40
19090;DHT22;9677;50.656;13.064;2022-09-16T11:22:34;19.90;54.10
19090;DHT22;9677;50.656;13.064;2022-09-16T11:25:28;19.90;53.90
19090;DHT22;9677;50.656;13.064;2022-09-16T11:28:32;19.80;53.80
19090;DHT22;9677;50.656;13.064;2022-09-16T11:31:13;19.80;53.90
19090;DHT22;9677;50.656;13.064;2022-09-16T11:33:50;19.70;53.70
19090;DHT22;9677;50.656;13.064;2022-09-16T11:36:39;19.70;53.90
19090;DHT22;9677;50.656;13.064;2022-09-16T11:39:30;19.60;53.70
19090;DHT22;9677;50.656;13.064;2022-09-16T11:42:12;19.50;54.00
19090;DHT22;9677;50.656;13.064;2022-09-16T11:44:47;19.60;54.60
19090;DHT22;9677;50.656;13.064;2022-09-16T11:50:38;19.60;54.40
19090;DHT22;9677;50.656;13.064;2022-09-16T11:53:30;19.70;53.60
19090;DHT22;9677;50.656;13.064;2022-09-16T11:56:12;19.80;53.20
19090;DHT22;9677;50.656;13.064;2022-09-16T11:58:45;19.90;53.10
19090;DHT22;9677;50.656;13.064;2022-09-16T12:01:25;19.80;52.60
19090;DHT22;9677;50.656;13.064;2022-09-16T12:04:01;19.80;52.20
19090;DHT22;9677;50.656;13.064;2022-09-16T12:06:38;20.00;52.10
19090;DHT22;9677;50.656;13.064;2022-09-16T12:09:14;19.80;52.20
19090;DHT22;9677;50.656;13.064;2022-09-16T12:11:46;20.00;52.40
19090;DHT22;9677;50.656;13.064;2022-09-16T12:14:22;19.70;52.50
19090;DHT22;9677;50.656;13.064;2022-09-16T12:16:55;19.70;51.90
19090;DHT22;9677;50.656;13.064;2022-09-16T12:19:39;19.80;52.50
19090;DHT22;9677;50.656;13.064;2022-09-16T12:22:17;19.80;52.80
19090;DHT22;9677;50.656;13.064;2022-09-16T12:24:55;19.80;53.10
19090;DHT22;9677;50.656;13.064;2022-09-16T12:27:36;19.60;53.30
19090;DHT22;9677;50.656;13.064;2022-09-16T12:30:14;19.50;53.60
19090;DHT22;9677;50.656;13.064;2022-09-16T12:32:49;19.50;53.90
19090;DHT22;9677;50.656;13.064;2022-09-16T12:35:26;19.60;53.90
19090;DHT22;9677;50.656;13.064;2022-09-16T12:37:58;19.80;54.10
19090;DHT22;9677;50.656;13.064;2022-09-16T12:40:32;19.60;54.10
19090;DHT22;9677;50.656;13.064;2022-09-16T12:43:28;19.70;54.10
19090;DHT22;9677;50.656;13.064;2022-09-16T12:46:26;19.70;53.90
19090;DHT22;9677;50.656;13.064;2022-09-16T12:49:29;19.80;53.40
19090;DHT22;9677;50.656;13.064;2022-09-16T12:52:17;19.80;53.70
19090;DHT22;9677;50.656;13.064;2022-09-16T12:55:20;20.00;53.60
19090;DHT22;9677;50.656;13.064;2022-09-16T13:01:21;19.90;52.50
19090;DHT22;9677;50.656;13.064;2022-09-16T13:03:55;19.80;52.70
19090;DHT22;9677;50.656;13.064;2022-09-16T13:06:26;19.80;52.70
19090;DHT22;9677;50.656;13.064;2022-09-16T13:08:55;19.70;52.90
19090;DHT22;9677;50.656;13.064;2022-09-16T13:11:26;19.60;53.20
19090;DHT22;9677;50.656;13.064;2022-09-16T13:14:21;19.60;53.10
19090;DHT22;9677;50.656;13.064;2022-09-16T13:16:53;19.50;53.20
19090;DHT22;9677;50.656;13.064;2022-09-16T13:19:40;19.40;53.50
19090;DHT22;9677;50.656;13.064;2022-09-16T13:22:21;19.40;53.50
19090;DHT22;9677;50.656;13.064;2022-09-16T13:24:54;19.40;53.50
19090;DHT22;9677;50.656;13.064;2022-09-16T13:27:32;19.40;53.70
19090;DHT22;9677;50.656;13.064;2022-09-16T13:30:24;19.30;53.90
19090;DHT22;9677;50.656;13.064;2022-09-16T13:33:24;19.40;54.20
19090;DHT22;9677;50.656;13.064;2022-09-16T13:36:14;19.40;53.90
19090;DHT22;9677;50.656;13.064;2022-09-16T13:38:46;19.40;54.10
19090;DHT22;9677;50.656;13.064;2022-09-16T13:41:29;19.50;54.20
19090;DHT22;9677;50.656;13.064;2022-09-16T13:44:00;19.50;54.00
19090;DHT22;9677;50.656;13.064;2022-09-16T13:46:33;19.60;54.20
19090;DHT22;9677;50.656;13.064;2022-09-16T13:49:17;19.60;53.90
19090;DHT22;9677;50.656;13.064;2022-09-16T13:51:48;19.60;53.20
19090;DHT22;9677;50.656;13.064;2022-09-16T13:54:21;19.70;53.30
19090;DHT22;9677;50.656;13.064;2022-09-16T13:57:19;19.80;52.90
19090;DHT22;9677;50.656;13.064;2022-09-16T14:00:13;19.60;52.50
19090;DHT22;9677;50.656;13.064;2022-09-16T14:06:00;19.60;52.50
19090;DHT22;9677;50.656;13.064;2022-09-16T14:08:41;19.60;52.70
19090;DHT22;9677;50.656;13.064;2022-09-16T14:11:26;19.50;52.80
19090;DHT22;9677;50.656;13.064;2022-09-16T14:14:01;19.50;53.00
19090;DHT22;9677;50.656;13.064;2022-09-16T14:16:34;19.50;52.50
19090;DHT22;9677;50.656;13.064;2022-09-16T14:19:17;19.50;52.30
19090;DHT22;9677;50.656;13.064;2022-09-16T14:22:00;19.40;52.10
19090;DHT22;9677;50.656;13.064;2022-09-16T14:24:34;19.40;52.20
19090;DHT22;9677;50.656;13.064;2022-09-16T14:27:04;19.40;52.30
19090;DHT22;9677;50.656;13.064;2022-09-16T14:29:53;19.30;52.50
19090;DHT22;9677;50.656;13.064;2022-09-16T14:32:24;19.20;52.20
19090;DHT22;9677;50.656;13.064;2022-09-16T14:34:57;19.10;52.50
19090;DHT22;9677;50.656;13.064;2022-09-16T14:37:29;19.10;52.50
19090;DHT22;9677;50.656;13.064;2022-09-16T14:40:03;19.00;52.60
19090;DHT22;9677;50.656;13.064;2022-09-16T14:42:34;19.00;52.70
19090;DHT22;9677;50.656;13.064;2022-09-16T14:45:04;18.90;52.80
19090;DHT22;9677;50.656;13.064;2022-09-16T14:47:37;18.90;53.00
19090;DHT22;9677;50.656;13.064;2022-09-16T14:50:21;18.90;52.70
19090;DHT22;9677;50.656;13.064;2022-09-16T14:52:55;18.90;52.60
19090;DHT22;9677;50.656;13.064;2022-09-16T14:55:25;18.80;52.50
19090;DHT22;9677;50.656;13.064;2022-09-16T14:57:57;18.90;52.60
19090;DHT22;9677;50.656;13.064;2022-09-16T15:00:29;18.80;52.30
19090;DHT22;9677;50.656;13.064;2022-09-16T15:03:05;18.80;52.20
19090;DHT22;9677;50.656;13.064;2022-09-16T15:05:41;18.90;52.20
19090;DHT22;9677;50.656;13.064;2022-09-16T15:08:15;18.80;52.30
19090;DHT22;9677;50.656;13.064;2022-09-16T15:10:48;18.80;52.30
19090;DHT22;9677;50.656;13.064;2022-09-16T15:13:21;18.80;52.40
19090;DHT22;9677;50.656;13.064;2022-09-16T15:15:53;18.80;52.50
19090;DHT22;9677;50.656;13.064;2022-09-16T15:18:26;18.80;52.70
19090;DHT22;9677;50.656;13.064;2022-09-16T15:21:03;18.90;52.20
19090;DHT22;9677;50.656;13.064;2022-09-16T15:23:35;18.80;52.00
19090;DHT22;9677;50.656;13.064;2022-09-16T15:26:11;18.90;52.10
19090;DHT22;9677;50.656;13.064;2022-09-16T15:28:57;18.90;51.70
19090;DHT22;9677;50.656;13.064;2022-09-16T15:31:31;18.80;51.50
19090;DHT22;9677;50.656;13.064;2022-09-16T15:34:04;18.80;51.80
19090;DHT22;9677;50.656;13.064;2022-09-16T15:36:49;18.80;51.70
19090;DHT22;9677;50.656;13.064;2022-09-16T15:39:24;18.80;51.70
19090;DHT22;9677;50.656;13.064;2022-09-16T15:42:10;18.80;51.60
19090;DHT22;9677;50.656;13.064;2022-09-16T15:44:45;18.70;51.30
19090;DHT22;9677;50.656;13.064;2022-09-16T15:47:18;18.70;51.50
19090;DHT22;9677;50.656;13.064;2022-09-16T15:49:50;18.70;52.40
19090;DHT22;9677;50.656;13.064;2022-09-16T15:52:22;18.70;51.90
19090;DHT22;9677;50.656;13.064;2022-09-16T15:54:54;18.70;52.10
19090;DHT22;9677;50.656;13.064;2022-09-16T15:57:30;18.70;52.40
19090;DHT22;9677;50.656;13.064;2022-09-16T16:00:05;18.70;52.40
19090;DHT22;9677;50.656;13.064;2022-09-16T16:02:43;18.70;52.90
19090;DHT22;9677;50.656;13.064;2022-09-16T16:05:17;18.80;52.30
19090;DHT22;9677;50.656;13.064;2022-09-16T16:07:49;18.80;52.30
19090;DHT22;9677;50.656;13.064;2022-09-16T16:10:21;18.80;52.20
19090;DHT22;9677;50.656;13.064;2022-09-16T16:12:51;18.80;52.40
19090;DHT22;9677;50.656;13.064;2022-09-16T16:15:22;18.80;52.50
19090;DHT22;9677;50.656;13.064;2022-09-16T16:17:53;19.00;52.60
19090;DHT22;9677;50.656;13.064;2022-09-16T16:20:22;18.90;52.50
19090;DHT22;9677;50.656;13.064;2022-09-16T16:22:52;19.20;52.00
19090;DHT22;9677;50.656;13.064;2022-09-16T16:25:21;19.00;51.60
19090;DHT22;9677;50.656;13.064;2022-09-16T16:27:49;19.00;51.60
19090;DHT22;9677;50.656;13.064;2022-09-16T16:30:18;18.90;51.40
19090;DHT22;9677;50.656;13.064;2022-09-16T16:32:46;18.90;51.50
19090;DHT22;9677;50.656;13.064;2022-09-16T16:36:01;19.20;51.70